sensor_id;sensor_type;location;lat;lon;timestamp;temperature;humidity
488;DHT22;16586;48.976;9.584;2022-12-18T00:00:11;-5.80;49.40
488;DHT22;16586;48.976;9.584;2022-12-18T00:02:38;-5.60;47.60
488;DHT22;16586;48.976;9.584;2022-12-18T00:05:07;-5.70;48.50
488;DHT22;16586;48.976;9.584;2022-12-18T00:07:35;-5.70;49.20
488;DHT22;16586;48.976;9.584;2022-12-18T00:10:02;-5.40;48.40
488;DHT22;16586;48.976;9.584;2022-12-18T00:12:29;-4.90;49.20
488;DHT22;16586;48.976;9.584;2022-12-18T00:14:56;-5.60;49.20
488;DHT22;16586;48.976;9.584;2022-12-18T00:17:23;-5.80;49.40
488;DHT22;16586;48.976;9.584;2022-12-18T00:19:50;-5.40;47.70
488;DHT22;16586;48.976;9.584;2022-12-18T00:22:18;-5.70;48.10
488;DHT22;16586;48.976;9.584;2022-12-18T00:24:44;-5.80;48.90
488;DHT22;16586;48.976;9.584;2022-12-18T00:27:11;-5.70;47.70
488;DHT22;16586;48.976;9.584;2022-12-18T00:29:38;-5.80;48.70
488;DHT22;16586;48.976;9.584;2022-12-18T00:32:05;-5.70;48.90
488;DHT22;16586;48.976;9.584;2022-12-18T00:34:31;-5.70;48.10
488;DHT22;16586;48.976;9.584;2022-12-18T00:36:58;-5.60;47.80
488;DHT22;16586;48.976;9.584;2022-12-18T00:39:26;-5.50;49.20
488;DHT22;16586;48.976;9.584;2022-12-18T00:41:53;-5.80;47.70
488;DHT22;16586;48.976;9.584;2022-12-18T00:44:37;-5.80;49.00
488;DHT22;16586;48.976;9.584;2022-12-18T00:47:04;-5.80;48.90
488;DHT22;16586;48.976;9.584;2022-12-18T00:49:31;-5.30;48.20
488;DHT22;16586;48.976;9.584;2022-12-18T00:51:58;-5.60;48.90
488;DHT22;16586;48.976;9.584;2022-12-18T00:54:26;-5.70;47.70
488;DHT22;16586;48.976;9.584;2022-12-18T00:56:53;-5.80;49.40
488;DHT22;16586;48.976;9.584;2022-12-18T00:59:20;-5.80;49.00
488;DHT22;16586;48.976;9.584;2022-12-18T01:01:47;-5.80;47.40
488;DHT22;16586;48.976;9.584;2022-12-18T01:04:14;-5.70;48.70
488;DHT22;16586;48.976;9.584;2022-12-18T01:06:41;-5.70;47.10
488;DHT22;16586;48.976;9.584;2022-12-18T01:09:08;-5.70;48.30
488;DHT22;16586;48.976;9.584;2022-12-18T01:11:36;-5.80;47.10
488;DHT22;16586;48.976;9.584;2022-12-18T01:14:03;-5.20;50.50
488;DHT22;16586;48.976;9.584;2022-12-18T01:16:30;-5.80;49.10
488;DHT22;16586;48.976;9.584;2022-12-18T01:18:57;-5.60;48.10
488;DHT22;16586;48.976;9.584;2022-12-18T01:21:24;-5.90;47.20
488;DHT22;16586;48.976;9.584;2022-12-18T01:23:52;-5.80;47.20
488;DHT22;16586;48.976;9.584;2022-12-18T01:26:19;-6.20;47.50
488;DHT22;16586;48.976;9.584;2022-12-18T01:28:47;-5.90;47.90
488;DHT22;16586;48.976;9.584;2022-12-18T01:31:17;-5.70;48.10
488;DHT22;16586;48.976;9.584;2022-12-18T01:33:44;-5.70;47.90
488;DHT22;16586;48.976;9.584;2022-12-18T01:36:17;-5.80;48.00
488;DHT22;16586;48.976;9.584;2022-12-18T01:38:45;-5.80;47.30
488;DHT22;16586;48.976;9.584;2022-12-18T01:41:13;-5.90;46.70
488;DHT22;16586;48.976;9.584;2022-12-18T01:43:50;-5.90;47.30
488;DHT22;16586;48.976;9.584;2022-12-18T01:46:18;-5.90;47.20
488;DHT22;16586;48.976;9.584;2022-12-18T01:48:47;-5.90;47.30
488;DHT22;16586;48.976;9.584;2022-12-18T01:51:15;-6.00;46.60
488;DHT22;16586;48.976;9.584;2022-12-18T01:53:43;-5.70;47.60
488;DHT22;16586;48.976;9.584;2022-12-18T01:56:13;-6.00;47.60
488;DHT22;16586;48.976;9.584;2022-12-18T01:58:46;-6.10;47.10
488;DHT22;16586;48.976;9.584;2022-12-18T02:01:16;-5.80;47.30
488;DHT22;16586;48.976;9.584;2022-12-18T02:03:43;-6.10;47.50
488;DHT22;16586;48.976;9.584;2022-12-18T02:06:15;-6.00;47.70
488;DHT22;16586;48.976;9.584;2022-12-18T02:08:49;-6.40;47.10
488;DHT22;16586;48.976;9.584;2022-12-18T02:11:26;-5.80;46.90
488;DHT22;16586;48.976;9.584;2022-12-18T02:14:02;-6.00;46.80
488;DHT22;16586;48.976;9.584;2022-12-18T02:16:38;-6.00;46.00
488;DHT22;16586;48.976;9.584;2022-12-18T02:19:20;-6.20;46.60
488;DHT22;16586;48.976;9.584;2022-12-18T02:21:54;-6.20;47.00
488;DHT22;16586;48.976;9.584;2022-12-18T02:24:29;-6.20;47.70
488;DHT22;16586;48.976;9.584;2022-12-18T02:27:00;-6.50;46.80
488;DHT22;16586;48.976;9.584;2022-12-18T02:29:31;-6.20;46.50
488;DHT22;16586;48.976;9.584;2022-12-18T02:31:59;-6.20;47.10
488;DHT22;16586;48.976;9.584;2022-12-18T02:34:29;-6.20;47.10
488;DHT22;16586;48.976;9.584;2022-12-18T02:36:57;-6.10;48.10
488;DHT22;16586;48.976;9.584;2022-12-18T02:39:26;-4.50;50.20
488;DHT22;16586;48.976;9.584;2022-12-18T02:41:55;-6.00;47.30
488;DHT22;16586;48.976;9.584;2022-12-18T02:44:24;-6.10;46.90
488;DHT22;16586;48.976;9.584;2022-12-18T02:46:53;-6.10;47.60
488;DHT22;16586;48.976;9.584;2022-12-18T02:49:31;-6.20;48.30
488;DHT22;16586;48.976;9.584;2022-12-18T02:52:05;-6.90;46.70
488;DHT22;16586;48.976;9.584;2022-12-18T02:54:51;-6.30;48.30
488;DHT22;16586;48.976;9.584;2022-12-18T02:57:27;-6.20;47.70
488;DHT22;16586;48.976;9.584;2022-12-18T03:00:03;-6.30;47.80
488;DHT22;16586;48.976;9.584;2022-12-18T03:02:37;-6.40;46.30
488;DHT22;16586;48.976;9.584;2022-12-18T03:05:10;-7.00;46.40
488;DHT22;16586;48.976;9.584;2022-12-18T03:07:42;-6.30;48.30
488;DHT22;16586;48.976;9.584;2022-12-18T03:10:14;-6.30;47.70
488;DHT22;16586;48.976;9.584;2022-12-18T03:12:45;-6.40;48.00
488;DHT22;16586;48.976;9.584;2022-12-18T03:15:19;-6.40;47.50
488;DHT22;16586;48.976;9.584;2022-12-18T03:17:52;-6.40;48.50
488;DHT22;16586;48.976;9.584;2022-12-18T03:20:21;-5.80;48.20
488;DHT22;16586;48.976;9.584;2022-12-18T03:22:53;-6.30;48.80
488;DHT22;16586;48.976;9.584;2022-12-18T03:25:22;-5.40;48.40
488;DHT22;16586;48.976;9.584;2022-12-18T03:27:54;-6.30;47.10
488;DHT22;16586;48.976;9.584;2022-12-18T03:30:25;-6.40;46.70
488;DHT22;16586;48.976;9.584;2022-12-18T03:32:58;-6.40;49.10
488;DHT22;16586;48.976;9.584;2022-12-18T03:35:30;-6.20;47.70
488;DHT22;16586;48.976;9.584;2022-12-18T03:37:57;-6.40;47.40
488;DHT22;16586;48.976;9.584;2022-12-18T03:40:29;-6.20;47.70
488;DHT22;16586;48.976;9.584;2022-12-18T03:43:00;-6.50;48.30
488;DHT22;16586;48.976;9.584;2022-12-18T03:45:34;-6.50;47.80
488;DHT22;16586;48.976;9.584;2022-12-18T03:48:04;-6.60;47.70
488;DHT22;16586;48.976;9.584;2022-12-18T03:50:39;-6.50;47.60
488;DHT22;16586;48.976;9.584;2022-12-18T03:53:20;-6.50;49.10
488;DHT22;16586;48.976;9.584;2022-12-18T03:55:50;-6.40;47.10
488;DHT22;16586;48.976;9.584;2022-12-18T03:58:20;-6.50;47.00
488;DHT22;16586;48.976;9.584;2022-12-18T04:00:52;-7.20;46.60
488;DHT22;16586;48.976;9.584;2022-12-18T04:03:21;-6.50;46.20
488;DHT22;16586;48.976;9.584;2022-12-18T04:05:51;-6.60;47.00
488;DHT22;16586;48.976;9.584;2022-12-18T04:08:19;-6.50;46.80
488;DHT22;16586;48.976;9.584;2022-12-18T04:10:47;-6.50;48.10
488;DHT22;16586;48.976;9.584;2022-12-18T04:13:21;-6.60;49.20
488;DHT22;16586;48.976;9.584;2022-12-18T04:15:50;-6.40;47.60
488;DHT22;16586;48.976;9.584;2022-12-18T04:18:16;-6.50;48.50
488;DHT22;16586;48.976;9.584;2022-12-18T04:20:43;-6.60;47.90
488;DHT22;16586;48.976;9.584;2022-12-18T04:23:10;-6.50;48.20
488;DHT22;16586;48.976;9.584;2022-12-18T04:25:37;-6.40;48.60
488;DHT22;16586;48.976;9.584;2022-12-18T04:28:03;-7.00;49.40
488;DHT22;16586;48.976;9.584;2022-12-18T04:30:30;-6.50;48.00
488;DHT22;16586;48.976;9.584;2022-12-18T04:32:58;-6.60;47.20
488;DHT22;16586;48.976;9.584;2022-12-18T04:35:25;-6.40;48.80
488;DHT22;16586;48.976;9.584;2022-12-18T04:37:52;-6.70;49.70
488;DHT22;16586;48.976;9.584;2022-12-18T04:40:19;-6.50;47.40
488;DHT22;16586;48.976;9.584;2022-12-18T04:42:46;-6.40;47.50
488;DHT22;16586;48.976;9.584;2022-12-18T04:45:13;-7.10;46.70
488;DHT22;16586;48.976;9.584;2022-12-18T04:47:40;-6.40;48.70
488;DHT22;16586;48.976;9.584;2022-12-18T04:50:09;-6.30;47.40
488;DHT22;16586;48.976;9.584;2022-12-18T04:52:36;-6.20;50.30
488;DHT22;16586;48.976;9.584;2022-12-18T04:55:03;-6.30;48.50
488;DHT22;16586;48.976;9.584;2022-12-18T04:57:29;-6.30;48.70
488;DHT22;16586;48.976;9.584;2022-12-18T04:59:56;-6.30;48.20
488;DHT22;16586;48.976;9.584;2022-12-18T05:02:23;-5.40;49.30
488;DHT22;16586;48.976;9.584;2022-12-18T05:04:49;-6.40;47.80
488;DHT22;16586;48.976;9.584;2022-12-18T05:07:18;-6.30;48.00
488;DHT22;16586;48.976;9.584;2022-12-18T05:09:44;-6.50;47.50
488;DHT22;16586;48.976;9.584;2022-12-18T05:12:11;-6.00;49.70
488;DHT22;16586;48.976;9.584;2022-12-18T05:14:38;-5.30;50.20
488;DHT22;16586;48.976;9.584;2022-12-18T05:17:04;-6.30;46.50
488;DHT22;16586;48.976;9.584;2022-12-18T05:19:31;-6.30;49.00
488;DHT22;16586;48.976;9.584;2022-12-18T05:21:58;-6.30;48.10
488;DHT22;16586;48.976;9.584;2022-12-18T05:24:26;-5.80;48.10
488;DHT22;16586;48.976;9.584;2022-12-18T05:26:53;-6.50;48.10
488;DHT22;16586;48.976;9.584;2022-12-18T05:29:20;-6.50;47.90
488;DHT22;16586;48.976;9.584;2022-12-18T05:31:47;-6.60;46.90
488;DHT22;16586;48.976;9.584;2022-12-18T05:34:14;-6.50;45.50
488;DHT22;16586;48.976;9.584;2022-12-18T05:36:41;-6.60;47.80
488;DHT22;16586;48.976;9.584;2022-12-18T05:39:08;-6.50;47.90
488;DHT22;16586;48.976;9.584;2022-12-18T05:41:36;-6.70;45.40
488;DHT22;16586;48.976;9.584;2022-12-18T05:44:03;-6.70;46.50
488;DHT22;16586;48.976;9.584;2022-12-18T05:46:31;-7.30;47.10
488;DHT22;16586;48.976;9.584;2022-12-18T05:48:59;-6.90;45.20
488;DHT22;16586;48.976;9.584;2022-12-18T05:51:26;-6.20;47.90
488;DHT22;16586;48.976;9.584;2022-12-18T05:53:53;-6.90;48.20
488;DHT22;16586;48.976;9.584;2022-12-18T05:56:21;-6.90;45.90
488;DHT22;16586;48.976;9.584;2022-12-18T05:58:53;-6.90;46.80
488;DHT22;16586;48.976;9.584;2022-12-18T06:01:22;-7.00;46.50
488;DHT22;16586;48.976;9.584;2022-12-18T06:03:50;-7.10;48.40
488;DHT22;16586;48.976;9.584;2022-12-18T06:06:18;-7.00;47.00
488;DHT22;16586;48.976;9.584;2022-12-18T06:08:45;-7.00;46.70
488;DHT22;16586;48.976;9.584;2022-12-18T06:11:16;-6.90;47.00
488;DHT22;16586;48.976;9.584;2022-12-18T06:13:43;-7.00;46.70
488;DHT22;16586;48.976;9.584;2022-12-18T06:16:12;-7.40;50.20
488;DHT22;16586;48.976;9.584;2022-12-18T06:18:38;-6.90;46.50
488;DHT22;16586;48.976;9.584;2022-12-18T06:21:05;-7.00;45.80
488;DHT22;16586;48.976;9.584;2022-12-18T06:23:32;-7.00;45.80
488;DHT22;16586;48.976;9.584;2022-12-18T06:26:03;-7.10;46.10
488;DHT22;16586;48.976;9.584;2022-12-18T06:28:30;-6.50;48.60
488;DHT22;16586;48.976;9.584;2022-12-18T06:30:57;-7.10;46.10
488;DHT22;16586;48.976;9.584;2022-12-18T06:33:27;-7.00;45.90
488;DHT22;16586;48.976;9.584;2022-12-18T06:35:54;-7.00;46.40
488;DHT22;16586;48.976;9.584;2022-12-18T06:38:25;-6.90;45.90
488;DHT22;16586;48.976;9.584;2022-12-18T06:40:52;-7.10;46.70
488;DHT22;16586;48.976;9.584;2022-12-18T06:43:18;-7.10;49.50
488;DHT22;16586;48.976;9.584;2022-12-18T06:45:45;-7.10;49.00
488;DHT22;16586;48.976;9.584;2022-12-18T06:48:18;-7.00;48.50
488;DHT22;16586;48.976;9.584;2022-12-18T06:50:46;-7.30;49.60
488;DHT22;16586;48.976;9.584;2022-12-18T06:53:13;-6.70;47.30
488;DHT22;16586;48.976;9.584;2022-12-18T06:55:40;-7.00;46.90
488;DHT22;16586;48.976;9.584;2022-12-18T06:58:07;-7.20;48.70
488;DHT22;16586;48.976;9.584;2022-12-18T07:00:34;-7.00;48.40
488;DHT22;16586;48.976;9.584;2022-12-18T07:03:00;-7.20;47.20
488;DHT22;16586;48.976;9.584;2022-12-18T07:05:27;-7.10;49.00
488;DHT22;16586;48.976;9.584;2022-12-18T07:07:55;-7.10;49.50
488;DHT22;16586;48.976;9.584;2022-12-18T07:10:22;-7.10;45.80
488;DHT22;16586;48.976;9.584;2022-12-18T07:12:49;-6.80;47.50
488;DHT22;16586;48.976;9.584;2022-12-18T07:15:16;-7.10;47.90
488;DHT22;16586;48.976;9.584;2022-12-18T07:17:43;-7.10;48.90
488;DHT22;16586;48.976;9.584;2022-12-18T07:20:10;-7.10;48.40
488;DHT22;16586;48.976;9.584;2022-12-18T07:22:37;-7.00;46.60
488;DHT22;16586;48.976;9.584;2022-12-18T07:25:07;-7.00;46.30
488;DHT22;16586;48.976;9.584;2022-12-18T07:27:34;-6.80;48.00
488;DHT22;16586;48.976;9.584;2022-12-18T07:30:00;-7.00;47.30
488;DHT22;16586;48.976;9.584;2022-12-18T07:32:27;-7.00;46.30
488;DHT22;16586;48.976;9.584;2022-12-18T07:34:54;-6.70;48.00
488;DHT22;16586;48.976;9.584;2022-12-18T07:37:21;-7.00;46.50
488;DHT22;16586;48.976;9.584;2022-12-18T07:39:48;-7.00;46.40
488;DHT22;16586;48.976;9.584;2022-12-18T07:42:16;-7.00;46.50
488;DHT22;16586;48.976;9.584;2022-12-18T07:44:58;-6.90;46.70
488;DHT22;16586;48.976;9.584;2022-12-18T07:47:25;-6.60;47.70
488;DHT22;16586;48.976;9.584;2022-12-18T07:49:52;-7.10;46.50
488;DHT22;16586;48.976;9.584;2022-12-18T07:52:18;-6.80;48.70
488;DHT22;16586;48.976;9.584;2022-12-18T07:54:45;-6.90;47.20
488;DHT22;16586;48.976;9.584;2022-12-18T07:57:17;-6.90;48.40
488;DHT22;16586;48.976;9.584;2022-12-18T07:59:43;-6.90;49.60
488;DHT22;16586;48.976;9.584;2022-12-18T08:02:10;-6.70;49.00
488;DHT22;16586;48.976;9.584;2022-12-18T08:04:37;-6.80;48.20
488;DHT22;16586;48.976;9.584;2022-12-18T08:07:04;-6.90;47.50
488;DHT22;16586;48.976;9.584;2022-12-18T08:09:30;-6.90;50.00
488;DHT22;16586;48.976;9.584;2022-12-18T08:11:57;-6.70;48.40
488;DHT22;16586;48.976;9.584;2022-12-18T08:14:26;-6.60;48.00
488;DHT22;16586;48.976;9.584;2022-12-18T08:16:52;-6.60;48.20
488;DHT22;16586;48.976;9.584;2022-12-18T08:19:19;-6.90;51.00
488;DHT22;16586;48.976;9.584;2022-12-18T08:21:46;-6.70;50.00
488;DHT22;16586;48.976;9.584;2022-12-18T08:24:13;-6.60;50.90
488;DHT22;16586;48.976;9.584;2022-12-18T08:26:41;-6.60;49.60
488;DHT22;16586;48.976;9.584;2022-12-18T08:29:09;-6.60;49.10
488;DHT22;16586;48.976;9.584;2022-12-18T08:31:37;-6.50;50.00
488;DHT22;16586;48.976;9.584;2022-12-18T08:34:04;-6.40;48.70
488;DHT22;16586;48.976;9.584;2022-12-18T08:36:31;-6.40;48.70
488;DHT22;16586;48.976;9.584;2022-12-18T08:38:58;-6.40;49.90
488;DHT22;16586;48.976;9.584;2022-12-18T08:41:24;-6.40;49.30
488;DHT22;16586;48.976;9.584;2022-12-18T08:43:51;-6.40;49.20
488;DHT22;16586;48.976;9.584;2022-12-18T08:46:39;-6.40;49.40
488;DHT22;16586;48.976;9.584;2022-12-18T08:49:06;-6.30;47.90
488;DHT22;16586;48.976;9.584;2022-12-18T08:51:34;-6.30;50.10
488;DHT22;16586;48.976;9.584;2022-12-18T08:54:02;-6.40;47.50
488;DHT22;16586;48.976;9.584;2022-12-18T08:56:30;-6.20;48.50
488;DHT22;16586;48.976;9.584;2022-12-18T08:58:56;-5.80;48.00
488;DHT22;16586;48.976;9.584;2022-12-18T09:01:24;-6.10;47.80
488;DHT22;16586;48.976;9.584;2022-12-18T09:03:58;-6.10;49.30
488;DHT22;16586;48.976;9.584;2022-12-18T09:06:25;-6.00;50.00
488;DHT22;16586;48.976;9.584;2022-12-18T09:08:52;-6.10;49.90
488;DHT22;16586;48.976;9.584;2022-12-18T09:11:21;-6.00;48.90
488;DHT22;16586;48.976;9.584;2022-12-18T09:13:48;-6.00;48.80
488;DHT22;16586;48.976;9.584;2022-12-18T09:16:15;-5.90;48.20
488;DHT22;16586;48.976;9.584;2022-12-18T09:18:42;-5.40;49.70
488;DHT22;16586;48.976;9.584;2022-12-18T09:21:12;-5.70;48.30
488;DHT22;16586;48.976;9.584;2022-12-18T09:23:39;-5.80;48.70
488;DHT22;16586;48.976;9.584;2022-12-18T09:26:06;-5.30;50.00
488;DHT22;16586;48.976;9.584;2022-12-18T09:28:34;-6.10;49.20
488;DHT22;16586;48.976;9.584;2022-12-18T09:31:04;-5.70;50.90
488;DHT22;16586;48.976;9.584;2022-12-18T09:33:32;-5.80;49.90
488;DHT22;16586;48.976;9.584;2022-12-18T09:36:01;-5.60;48.90
488;DHT22;16586;48.976;9.584;2022-12-18T09:38:30;-6.10;48.80
488;DHT22;16586;48.976;9.584;2022-12-18T09:41:00;-6.30;49.60
488;DHT22;16586;48.976;9.584;2022-12-18T09:43:30;-5.60;48.70
488;DHT22;16586;48.976;9.584;2022-12-18T09:46:06;-5.50;50.10
488;DHT22;16586;48.976;9.584;2022-12-18T09:48:35;-6.10;49.20
488;DHT22;16586;48.976;9.584;2022-12-18T09:51:09;-5.50;49.20
488;DHT22;16586;48.976;9.584;2022-12-18T09:53:41;-5.40;50.00
488;DHT22;16586;48.976;9.584;2022-12-18T09:56:12;-5.40;50.10
488;DHT22;16586;48.976;9.584;2022-12-18T09:58:45;-5.10;51.60
488;DHT22;16586;48.976;9.584;2022-12-18T10:01:15;-5.30;50.50
488;DHT22;16586;48.976;9.584;2022-12-18T10:03:43;-4.70;51.80
488;DHT22;16586;48.976;9.584;2022-12-18T10:06:13;-5.10;51.80
488;DHT22;16586;48.976;9.584;2022-12-18T10:08:48;-5.10;49.90
488;DHT22;16586;48.976;9.584;2022-12-18T10:11:27;-5.10;51.00
488;DHT22;16586;48.976;9.584;2022-12-18T10:13:58;-5.00;51.00
488;DHT22;16586;48.976;9.584;2022-12-18T10:16:34;-4.70;51.60
488;DHT22;16586;48.976;9.584;2022-12-18T10:19:17;-4.50;51.80
488;DHT22;16586;48.976;9.584;2022-12-18T10:21:54;-4.90;51.30
488;DHT22;16586;48.976;9.584;2022-12-18T10:24:28;-4.80;51.90
488;DHT22;16586;48.976;9.584;2022-12-18T10:27:04;-4.70;52.50
488;DHT22;16586;48.976;9.584;2022-12-18T10:29:36;-4.80;51.20
488;DHT22;16586;48.976;9.584;2022-12-18T10:32:03;-4.70;51.80
488;DHT22;16586;48.976;9.584;2022-12-18T10:34:30;-4.70;52.40
488;DHT22;16586;48.976;9.584;2022-12-18T10:36:57;-4.60;52.70
488;DHT22;16586;48.976;9.584;2022-12-18T10:39:28;-4.70;53.50
488;DHT22;16586;48.976;9.584;2022-12-18T10:42:09;-4.40;53.40
488;DHT22;16586;48.976;9.584;2022-12-18T10:44:37;-4.30;53.80
488;DHT22;16586;48.976;9.584;2022-12-18T10:47:06;-4.20;53.40
488;DHT22;16586;48.976;9.584;2022-12-18T10:49:42;-2.40;56.50
488;DHT22;16586;48.976;9.584;2022-12-18T10:52:17;-4.10;53.70
488;DHT22;16586;48.976;9.584;2022-12-18T10:54:51;-4.20;53.90
488;DHT22;16586;48.976;9.584;2022-12-18T10:57:30;-3.90;53.50
488;DHT22;16586;48.976;9.584;2022-12-18T11:00:03;-4.00;54.20
488;DHT22;16586;48.976;9.584;2022-12-18T11:02:40;-3.70;54.70
488;DHT22;16586;48.976;9.584;2022-12-18T11:05:26;-4.60;55.50
488;DHT22;16586;48.976;9.584;2022-12-18T11:07:53;-3.60;54.90
488;DHT22;16586;48.976;9.584;2022-12-18T11:10:25;-3.50;54.80
488;DHT22;16586;48.976;9.584;2022-12-18T11:12:52;-3.40;54.40
488;DHT22;16586;48.976;9.584;2022-12-18T11:15:23;-3.90;54.90
488;DHT22;16586;48.976;9.584;2022-12-18T11:17:51;-3.00;55.40
488;DHT22;16586;48.976;9.584;2022-12-18T11:20:30;-3.10;55.30
488;DHT22;16586;48.976;9.584;2022-12-18T11:23:00;-3.00;55.20
488;DHT22;16586;48.976;9.584;2022-12-18T11:25:28;-2.90;55.30
488;DHT22;16586;48.976;9.584;2022-12-18T11:27:58;-2.50;55.70
488;DHT22;16586;48.976;9.584;2022-12-18T11:30:27;-2.60;54.80
488;DHT22;16586;48.976;9.584;2022-12-18T11:33:01;-2.40;55.40
488;DHT22;16586;48.976;9.584;2022-12-18T11:35:40;-2.20;54.40
488;DHT22;16586;48.976;9.584;2022-12-18T11:38:18;-2.50;53.90
488;DHT22;16586;48.976;9.584;2022-12-18T11:40:55;-2.20;55.00
488;DHT22;16586;48.976;9.584;2022-12-18T11:43:27;-0.10;56.50
488;DHT22;16586;48.976;9.584;2022-12-18T11:46:00;-0.20;56.50
488;DHT22;16586;48.976;9.584;2022-12-18T11:48:32;-1.80;53.00
488;DHT22;16586;48.976;9.584;2022-12-18T11:51:01;-2.10;53.20
488;DHT22;16586;48.976;9.584;2022-12-18T11:53:30;-1.90;53.50
488;DHT22;16586;48.976;9.584;2022-12-18T11:56:08;-1.90;53.40
488;DHT22;16586;48.976;9.584;2022-12-18T11:58:47;-1.70;53.80
488;DHT22;16586;48.976;9.584;2022-12-18T12:01:33;-1.90;52.90
488;DHT22;16586;48.976;9.584;2022-12-18T12:04:24;-1.80;52.90
488;DHT22;16586;48.976;9.584;2022-12-18T12:07:02;-1.60;52.90
488;DHT22;16586;48.976;9.584;2022-12-18T12:09:43;-1.60;53.80
488;DHT22;16586;48.976;9.584;2022-12-18T12:12:25;-1.60;54.00
488;DHT22;16586;48.976;9.584;2022-12-18T12:14:59;-1.60;52.70
488;DHT22;16586;48.976;9.584;2022-12-18T12:17:34;-1.70;52.70
488;DHT22;16586;48.976;9.584;2022-12-18T12:20:07;-1.40;52.60
488;DHT22;16586;48.976;9.584;2022-12-18T12:22:43;-1.40;52.20
488;DHT22;16586;48.976;9.584;2022-12-18T12:25:26;-1.40;52.50
488;DHT22;16586;48.976;9.584;2022-12-18T12:28:13;-0.90;53.40
488;DHT22;16586;48.976;9.584;2022-12-18T12:30:53;-1.60;51.80
488;DHT22;16586;48.976;9.584;2022-12-18T12:33:35;-1.70;52.60
488;DHT22;16586;48.976;9.584;2022-12-18T12:36:09;-0.20;53.30
488;DHT22;16586;48.976;9.584;2022-12-18T12:38:41;-1.10;52.90
488;DHT22;16586;48.976;9.584;2022-12-18T12:41:13;-1.30;53.00
488;DHT22;16586;48.976;9.584;2022-12-18T12:43:58;-1.20;51.70
488;DHT22;16586;48.976;9.584;2022-12-18T12:46:32;-1.10;51.60
488;DHT22;16586;48.976;9.584;2022-12-18T12:49:02;-1.10;52.40
488;DHT22;16586;48.976;9.584;2022-12-18T12:51:33;-1.70;52.40
488;DHT22;16586;48.976;9.584;2022-12-18T12:54:03;-1.00;52.20
488;DHT22;16586;48.976;9.584;2022-12-18T12:56:37;-0.90;52.90
488;DHT22;16586;48.976;9.584;2022-12-18T12:59:13;-0.80;52.20
488;DHT22;16586;48.976;9.584;2022-12-18T13:01:46;-0.80;51.80
488;DHT22;16586;48.976;9.584;2022-12-18T13:04:23;-0.90;52.20
488;DHT22;16586;48.976;9.584;2022-12-18T13:06:58;1.40;53.90
488;DHT22;16586;48.976;9.584;2022-12-18T13:09:30;-0.50;52.90
488;DHT22;16586;48.976;9.584;2022-12-18T13:12:02;-0.60;51.70
488;DHT22;16586;48.976;9.584;2022-12-18T13:14:48;-0.50;51.70
488;DHT22;16586;48.976;9.584;2022-12-18T13:17:17;-0.40;51.20
488;DHT22;16586;48.976;9.584;2022-12-18T13:20:04;-0.40;52.10
488;DHT22;16586;48.976;9.584;2022-12-18T13:22:35;1.00;52.90
488;DHT22;16586;48.976;9.584;2022-12-18T13:25:02;-0.30;51.30
488;DHT22;16586;48.976;9.584;2022-12-18T13:28:01;-0.20;52.50
488;DHT22;16586;48.976;9.584;2022-12-18T13:30:44;-0.10;51.60
488;DHT22;16586;48.976;9.584;2022-12-18T13:33:37;-0.10;51.50
488;DHT22;16586;48.976;9.584;2022-12-18T13:36:13;0.00;51.20
488;DHT22;16586;48.976;9.584;2022-12-18T13:38:41;-0.40;51.00
488;DHT22;16586;48.976;9.584;2022-12-18T13:41:23;-0.30;50.60
488;DHT22;16586;48.976;9.584;2022-12-18T13:43:52;-0.30;51.10
488;DHT22;16586;48.976;9.584;2022-12-18T13:46:25;1.70;52.30
488;DHT22;16586;48.976;9.584;2022-12-18T13:48:59;-0.10;50.60
488;DHT22;16586;48.976;9.584;2022-12-18T13:51:28;2.20;53.60
488;DHT22;16586;48.976;9.584;2022-12-18T13:53:58;-0.10;51.20
488;DHT22;16586;48.976;9.584;2022-12-18T13:56:27;0.90;51.60
488;DHT22;16586;48.976;9.584;2022-12-18T13:59:17;-0.10;50.00
488;DHT22;16586;48.976;9.584;2022-12-18T14:01:49;0.20;50.90
488;DHT22;16586;48.976;9.584;2022-12-18T14:04:20;-0.40;50.30
488;DHT22;16586;48.976;9.584;2022-12-18T14:06:50;-0.20;50.60
488;DHT22;16586;48.976;9.584;2022-12-18T14:09:20;-0.40;50.50
488;DHT22;16586;48.976;9.584;2022-12-18T14:11:49;-0.20;51.10
488;DHT22;16586;48.976;9.584;2022-12-18T14:14:16;-0.40;50.40
488;DHT22;16586;48.976;9.584;2022-12-18T14:16:44;-0.20;51.30
488;DHT22;16586;48.976;9.584;2022-12-18T14:19:15;-0.40;52.00
488;DHT22;16586;48.976;9.584;2022-12-18T14:21:46;-0.20;50.30
488;DHT22;16586;48.976;9.584;2022-12-18T14:24:14;-0.30;52.20
488;DHT22;16586;48.976;9.584;2022-12-18T14:26:42;-0.30;50.90
488;DHT22;16586;48.976;9.584;2022-12-18T14:29:21;-0.70;51.30
488;DHT22;16586;48.976;9.584;2022-12-18T14:32:04;-0.50;50.70
488;DHT22;16586;48.976;9.584;2022-12-18T14:34:32;0.50;53.20
488;DHT22;16586;48.976;9.584;2022-12-18T14:36:59;0.80;53.10
488;DHT22;16586;48.976;9.584;2022-12-18T14:39:26;-0.60;51.30
488;DHT22;16586;48.976;9.584;2022-12-18T14:41:52;-0.90;53.20
488;DHT22;16586;48.976;9.584;2022-12-18T14:44:19;-0.60;52.60
488;DHT22;16586;48.976;9.584;2022-12-18T14:46:48;-0.80;52.20
488;DHT22;16586;48.976;9.584;2022-12-18T14:49:21;0.20;52.70
488;DHT22;16586;48.976;9.584;2022-12-18T14:51:52;-1.20;51.60
488;DHT22;16586;48.976;9.584;2022-12-18T14:54:20;-1.00;52.20
488;DHT22;16586;48.976;9.584;2022-12-18T14:56:49;-1.00;51.50
488;DHT22;16586;48.976;9.584;2022-12-18T14:59:20;-1.00;51.60
488;DHT22;16586;48.976;9.584;2022-12-18T15:01:58;-1.10;52.00
488;DHT22;16586;48.976;9.584;2022-12-18T15:04:28;-0.30;53.80
488;DHT22;16586;48.976;9.584;2022-12-18T15:07:14;-1.30;51.50
488;DHT22;16586;48.976;9.584;2022-12-18T15:09:44;-1.20;53.10
488;DHT22;16586;48.976;9.584;2022-12-18T15:12:32;0.20;55.40
488;DHT22;16586;48.976;9.584;2022-12-18T15:14:59;0.40;54.50
488;DHT22;16586;48.976;9.584;2022-12-18T15:17:26;-1.50;54.20
488;DHT22;16586;48.976;9.584;2022-12-18T15:19:59;-1.60;54.10
488;DHT22;16586;48.976;9.584;2022-12-18T15:22:29;-1.60;52.70
488;DHT22;16586;48.976;9.584;2022-12-18T15:24:58;-1.70;54.10
488;DHT22;16586;48.976;9.584;2022-12-18T15:27:30;-1.80;54.00
488;DHT22;16586;48.976;9.584;2022-12-18T15:32:44;-1.80;53.90
488;DHT22;16586;48.976;9.584;2022-12-18T15:35:14;-1.80;54.40
488;DHT22;16586;48.976;9.584;2022-12-18T15:37:43;0.20;55.90
488;DHT22;16586;48.976;9.584;2022-12-18T15:40:13;-1.90;54.30
488;DHT22;16586;48.976;9.584;2022-12-18T15:42:40;-2.00;55.40
488;DHT22;16586;48.976;9.584;2022-12-18T15:45:25;-2.00;54.00
488;DHT22;16586;48.976;9.584;2022-12-18T15:47:51;-2.20;56.60
488;DHT22;16586;48.976;9.584;2022-12-18T15:50:18;-2.20;54.90
488;DHT22;16586;48.976;9.584;2022-12-18T15:52:49;-2.10;55.80
488;DHT22;16586;48.976;9.584;2022-12-18T15:55:18;-2.20;54.20
488;DHT22;16586;48.976;9.584;2022-12-18T15:57:59;-2.20;55.10
488;DHT22;16586;48.976;9.584;2022-12-18T16:00:26;-2.30;54.70
488;DHT22;16586;48.976;9.584;2022-12-18T16:02:53;-2.40;55.60
488;DHT22;16586;48.976;9.584;2022-12-18T16:05:21;-2.30;55.90
488;DHT22;16586;48.976;9.584;2022-12-18T16:07:49;-2.40;54.30
488;DHT22;16586;48.976;9.584;2022-12-18T16:10:16;-2.40;54.20
488;DHT22;16586;48.976;9.584;2022-12-18T16:12:43;-2.40;55.60
488;DHT22;16586;48.976;9.584;2022-12-18T16:15:11;-2.60;55.30
488;DHT22;16586;48.976;9.584;2022-12-18T16:17:39;-2.50;55.20
488;DHT22;16586;48.976;9.584;2022-12-18T16:20:07;-3.60;54.40
488;DHT22;16586;48.976;9.584;2022-12-18T16:22:35;-2.50;55.50
488;DHT22;16586;48.976;9.584;2022-12-18T16:25:03;-2.70;56.20